sensor_id;sensor_type;location;lat;lon;timestamp;P1;durP1;ratioP1;P2;durP2;ratioP2
27644;SDS011;15054;57.152;-2.118;2022-07-29T00:01:06;9.13;;;6.15;;
27644;SDS011;15054;57.152;-2.118;2022-07-29T00:03:44;6.28;;;5.68;;
27644;SDS011;15054;57.152;-2.118;2022-07-29T00:06:12;13.73;;;7.22;;
27644;SDS011;15054;57.152;-2.118;2022-07-29T00:08:39;8.15;;;5.53;;
27644;SDS011;15054;57.152;-2.118;2022-07-29T00:11:06;7.97;;;6.22;;
27644;SDS011;15054;57.152;-2.118;2022-07-29T00:13:34;9.40;;;6.45;;
27644;SDS011;15054;57.152;-2.118;2022-07-29T00:16:01;8.07;;;6.75;;
27644;SDS011;15054;57.152;-2.118;2022-07-29T00:18:30;7.90;;;7.10;;
27644;SDS011;15054;57.152;-2.118;2022-07-29T00:20:58;9.18;;;6.65;;
27644;SDS011;15054;57.152;-2.118;2022-07-29T00:23:25;7.38;;;6.68;;
27644;SDS011;15054;57.152;-2.118;2022-07-29T00:25:54;7.43;;;6.70;;
27644;SDS011;15054;57.152;-2.118;2022-07-29T00:28:21;9.43;;;6.63;;
27644;SDS011;15054;57.152;-2.118;2022-07-29T00:30:48;7.03;;;6.22;;
27644;SDS011;15054;57.152;-2.118;2022-07-29T00:33:15;9.50;;;7.43;;
27644;SDS011;15054;57.152;-2.118;2022-07-29T00:35:42;8.52;;;6.38;;
27644;SDS011;15054;57.152;-2.118;2022-07-29T00:38:13;7.35;;;6.07;;
27644;SDS011;15054;57.152;-2.118;2022-07-29T00:40:41;9.02;;;5.85;;
27644;SDS011;15054;57.152;-2.118;2022-07-29T00:43:10;10.10;;;6.80;;
27644;SDS011;15054;57.152;-2.118;2022-07-29T00:45:38;8.63;;;6.90;;
27644;SDS011;15054;57.152;-2.118;2022-07-29T00:48:06;9.15;;;6.90;;
27644;SDS011;15054;57.152;-2.118;2022-07-29T00:50:35;9.60;;;7.07;;
27644;SDS011;15054;57.152;-2.118;2022-07-29T00:53:03;10.35;;;7.03;;
27644;SDS011;15054;57.152;-2.118;2022-07-29T00:55:32;9.30;;;6.97;;
27644;SDS011;15054;57.152;-2.118;2022-07-29T00:57:59;10.23;;;7.18;;
27644;SDS011;15054;57.152;-2.118;2022-07-29T01:00:27;9.45;;;6.53;;
27644;SDS011;15054;57.152;-2.118;2022-07-29T01:02:55;9.60;;;6.35;;
27644;SDS011;15054;57.152;-2.118;2022-07-29T01:05:23;9.63;;;6.65;;
27644;SDS011;15054;57.152;-2.118;2022-07-29T01:08:13;10.27;;;6.43;;
27644;SDS011;15054;57.152;-2.118;2022-07-29T01:10:42;7.32;;;6.13;;
27644;SDS011;15054;57.152;-2.118;2022-07-29T01:13:12;8.95;;;6.55;;
27644;SDS011;15054;57.152;-2.118;2022-07-29T01:15:45;8.57;;;6.18;;
27644;SDS011;15054;57.152;-2.118;2022-07-29T01:18:16;9.38;;;6.05;;
27644;SDS011;15054;57.152;-2.118;2022-07-29T01:29:38;7.47;;;5.57;;
27644;SDS011;15054;57.152;-2.118;2022-07-29T01:32:01;8.63;;;6.10;;
27644;SDS011;15054;57.152;-2.118;2022-07-29T01:34:56;11.23;;;5.60;;
27644;SDS011;15054;57.152;-2.118;2022-07-29T01:37:39;6.15;;;5.30;;
27644;SDS011;15054;57.152;-2.118;2022-07-29T01:43:03;7.50;;;5.43;;
27644;SDS011;15054;57.152;-2.118;2022-07-29T01:48:27;9.65;;;6.20;;
27644;SDS011;15054;57.152;-2.118;2022-07-29T01:53:55;10.00;;;5.70;;
27644;SDS011;15054;57.152;-2.118;2022-07-29T01:56:26;8.27;;;5.82;;
27644;SDS011;15054;57.152;-2.118;2022-07-29T01:58:57;9.93;;;5.97;;
27644;SDS011;15054;57.152;-2.118;2022-07-29T02:01:26;6.63;;;5.88;;
27644;SDS011;15054;57.152;-2.118;2022-07-29T02:03:56;7.22;;;5.45;;
27644;SDS011;15054;57.152;-2.118;2022-07-29T02:06:25;6.53;;;5.60;;
27644;SDS011;15054;57.152;-2.118;2022-07-29T02:08:54;6.90;;;5.53;;
27644;SDS011;15054;57.152;-2.118;2022-07-29T02:11:23;7.18;;;5.68;;
27644;SDS011;15054;57.152;-2.118;2022-07-29T02:13:52;7.72;;;5.82;;
27644;SDS011;15054;57.152;-2.118;2022-07-29T02:16:21;7.85;;;5.40;;
27644;SDS011;15054;57.152;-2.118;2022-07-29T02:18:51;9.05;;;5.20;;
27644;SDS011;15054;57.152;-2.118;2022-07-29T02:21:22;10.23;;;5.40;;
27644;SDS011;15054;57.152;-2.118;2022-07-29T02:23:52;6.82;;;5.20;;
27644;SDS011;15054;57.152;-2.118;2022-07-29T02:26:20;7.63;;;5.15;;
27644;SDS011;15054;57.152;-2.118;2022-07-29T02:28:52;6.63;;;5.75;;
27644;SDS011;15054;57.152;-2.118;2022-07-29T02:31:24;6.22;;;5.63;;
27644;SDS011;15054;57.152;-2.118;2022-07-29T02:33:55;5.95;;;5.15;;
27644;SDS011;15054;57.152;-2.118;2022-07-29T02:36:23;5.72;;;5.13;;
27644;SDS011;15054;57.152;-2.118;2022-07-29T02:38:52;6.18;;;4.97;;
27644;SDS011;15054;57.152;-2.118;2022-07-29T02:41:26;6.13;;;5.55;;
27644;SDS011;15054;57.152;-2.118;2022-07-29T02:43:57;9.18;;;5.15;;
27644;SDS011;15054;57.152;-2.118;2022-07-29T02:46:34;5.30;;;4.80;;
27644;SDS011;15054;57.152;-2.118;2022-07-29T02:49:07;5.68;;;5.10;;
27644;SDS011;15054;57.152;-2.118;2022-07-29T02:51:41;9.88;;;5.63;;
27644;SDS011;15054;57.152;-2.118;2022-07-29T02:54:14;7.15;;;5.47;;
27644;SDS011;15054;57.152;-2.118;2022-07-29T02:56:50;5.65;;;5.13;;
27644;SDS011;15054;57.152;-2.118;2022-07-29T02:59:22;6.43;;;5.05;;
27644;SDS011;15054;57.152;-2.118;2022-07-29T03:01:52;6.15;;;5.20;;
27644;SDS011;15054;57.152;-2.118;2022-07-29T03:04:22;6.28;;;5.20;;
27644;SDS011;15054;57.152;-2.118;2022-07-29T03:06:52;6.97;;;5.10;;
27644;SDS011;15054;57.152;-2.118;2022-07-29T03:09:20;4.95;;;4.45;;
27644;SDS011;15054;57.152;-2.118;2022-07-29T03:11:49;5.13;;;4.72;;
27644;SDS011;15054;57.152;-2.118;2022-07-29T03:14:17;5.32;;;4.80;;
27644;SDS011;15054;57.152;-2.118;2022-07-29T03:16:46;6.70;;;5.00;;
27644;SDS011;15054;57.152;-2.118;2022-07-29T03:19:14;5.60;;;4.60;;
27644;SDS011;15054;57.152;-2.118;2022-07-29T03:21:42;7.32;;;4.75;;
27644;SDS011;15054;57.152;-2.118;2022-07-29T03:24:09;6.63;;;5.15;;
27644;SDS011;15054;57.152;-2.118;2022-07-29T03:26:36;6.15;;;5.10;;
27644;SDS011;15054;57.152;-2.118;2022-07-29T03:29:04;5.40;;;4.57;;
27644;SDS011;15054;57.152;-2.118;2022-07-29T03:31:32;5.90;;;4.47;;
27644;SDS011;15054;57.152;-2.118;2022-07-29T03:33:59;5.97;;;5.38;;
27644;SDS011;15054;57.152;-2.118;2022-07-29T03:36:26;6.18;;;4.68;;
27644;SDS011;15054;57.152;-2.118;2022-07-29T03:38:53;5.13;;;4.70;;
27644;SDS011;15054;57.152;-2.118;2022-07-29T03:41:22;5.47;;;4.50;;
27644;SDS011;15054;57.152;-2.118;2022-07-29T03:43:50;4.78;;;4.32;;
27644;SDS011;15054;57.152;-2.118;2022-07-29T03:46:19;6.70;;;5.00;;
27644;SDS011;15054;57.152;-2.118;2022-07-29T03:48:50;6.68;;;4.43;;
27644;SDS011;15054;57.152;-2.118;2022-07-29T03:51:23;5.97;;;4.28;;
27644;SDS011;15054;57.152;-2.118;2022-07-29T03:54:00;4.80;;;4.00;;
27644;SDS011;15054;57.152;-2.118;2022-07-29T03:56:37;6.13;;;5.15;;
27644;SDS011;15054;57.152;-2.118;2022-07-29T03:59:06;7.30;;;5.55;;
27644;SDS011;15054;57.152;-2.118;2022-07-29T04:01:34;5.95;;;5.32;;
27644;SDS011;15054;57.152;-2.118;2022-07-29T04:04:02;6.28;;;5.38;;
27644;SDS011;15054;57.152;-2.118;2022-07-29T04:06:37;8.80;;;5.78;;
27644;SDS011;15054;57.152;-2.118;2022-07-29T04:09:07;9.95;;;6.07;;
27644;SDS011;15054;57.152;-2.118;2022-07-29T04:11:35;9.10;;;6.25;;
27644;SDS011;15054;57.152;-2.118;2022-07-29T04:14:24;8.27;;;6.75;;
27644;SDS011;15054;57.152;-2.118;2022-07-29T04:16:51;11.85;;;7.40;;
27644;SDS011;15054;57.152;-2.118;2022-07-29T04:19:19;10.23;;;7.35;;
27644;SDS011;15054;57.152;-2.118;2022-07-29T04:21:46;8.32;;;6.40;;
27644;SDS011;15054;57.152;-2.118;2022-07-29T04:24:13;14.00;;;6.80;;
27644;SDS011;15054;57.152;-2.118;2022-07-29T04:26:41;8.60;;;7.00;;
27644;SDS011;15054;57.152;-2.118;2022-07-29T04:29:09;8.32;;;6.82;;
27644;SDS011;15054;57.152;-2.118;2022-07-29T04:31:36;7.10;;;6.40;;
27644;SDS011;15054;57.152;-2.118;2022-07-29T04:34:03;10.77;;;6.88;;
27644;SDS011;15054;57.152;-2.118;2022-07-29T04:36:30;10.13;;;6.50;;
27644;SDS011;15054;57.152;-2.118;2022-07-29T04:38:57;11.63;;;6.85;;
27644;SDS011;15054;57.152;-2.118;2022-07-29T04:41:24;8.52;;;6.93;;
27644;SDS011;15054;57.152;-2.118;2022-07-29T04:43:59;11.30;;;6.85;;
27644;SDS011;15054;57.152;-2.118;2022-07-29T04:46:33;10.85;;;7.28;;
27644;SDS011;15054;57.152;-2.118;2022-07-29T04:49:01;10.77;;;7.15;;
27644;SDS011;15054;57.152;-2.118;2022-07-29T04:51:29;10.32;;;7.50;;
27644;SDS011;15054;57.152;-2.118;2022-07-29T04:53:56;8.60;;;6.80;;
27644;SDS011;15054;57.152;-2.118;2022-07-29T04:56:23;10.98;;;7.57;;
27644;SDS011;15054;57.152;-2.118;2022-07-29T04:58:51;9.90;;;6.72;;
27644;SDS011;15054;57.152;-2.118;2022-07-29T05:01:18;9.65;;;7.10;;
27644;SDS011;15054;57.152;-2.118;2022-07-29T05:03:45;8.65;;;7.15;;
27644;SDS011;15054;57.152;-2.118;2022-07-29T05:06:12;10.48;;;6.43;;
27644;SDS011;15054;57.152;-2.118;2022-07-29T05:08:39;9.18;;;6.47;;
27644;SDS011;15054;57.152;-2.118;2022-07-29T05:11:07;8.45;;;6.30;;
27644;SDS011;15054;57.152;-2.118;2022-07-29T05:13:37;7.85;;;6.90;;
27644;SDS011;15054;57.152;-2.118;2022-07-29T05:16:12;9.37;;;5.83;;
27644;SDS011;15054;57.152;-2.118;2022-07-29T05:18:40;12.52;;;7.10;;
27644;SDS011;15054;57.152;-2.118;2022-07-29T05:21:08;13.52;;;7.00;;
27644;SDS011;15054;57.152;-2.118;2022-07-29T05:23:35;9.43;;;7.00;;
27644;SDS011;15054;57.152;-2.118;2022-07-29T05:26:02;8.80;;;6.32;;
27644;SDS011;15054;57.152;-2.118;2022-07-29T05:28:33;10.90;;;6.40;;
27644;SDS011;15054;57.152;-2.118;2022-07-29T05:31:01;12.20;;;5.53;;
27644;SDS011;15054;57.152;-2.118;2022-07-29T05:33:28;10.13;;;6.03;;
27644;SDS011;15054;57.152;-2.118;2022-07-29T05:36:03;11.10;;;5.93;;
27644;SDS011;15054;57.152;-2.118;2022-07-29T05:38:32;7.40;;;5.05;;
27644;SDS011;15054;57.152;-2.118;2022-07-29T05:40:59;8.13;;;4.72;;
27644;SDS011;15054;57.152;-2.118;2022-07-29T05:43:27;7.88;;;5.13;;
27644;SDS011;15054;57.152;-2.118;2022-07-29T05:45:55;7.35;;;4.47;;
27644;SDS011;15054;57.152;-2.118;2022-07-29T05:48:22;7.78;;;4.50;;
27644;SDS011;15054;57.152;-2.118;2022-07-29T05:50:50;7.38;;;4.97;;
27644;SDS011;15054;57.152;-2.118;2022-07-29T05:53:17;10.23;;;4.47;;
27644;SDS011;15054;57.152;-2.118;2022-07-29T05:55:46;8.48;;;4.75;;
27644;SDS011;15054;57.152;-2.118;2022-07-29T05:58:14;7.38;;;4.47;;
27644;SDS011;15054;57.152;-2.118;2022-07-29T06:00:41;6.65;;;3.90;;
27644;SDS011;15054;57.152;-2.118;2022-07-29T06:03:08;7.03;;;3.90;;
27644;SDS011;15054;57.152;-2.118;2022-07-29T06:05:35;8.07;;;4.05;;
27644;SDS011;15054;57.152;-2.118;2022-07-29T06:08:03;8.43;;;4.03;;
27644;SDS011;15054;57.152;-2.118;2022-07-29T06:10:34;6.00;;;3.05;;
27644;SDS011;15054;57.152;-2.118;2022-07-29T06:13:01;5.55;;;2.97;;
27644;SDS011;15054;57.152;-2.118;2022-07-29T06:15:29;5.30;;;2.83;;
27644;SDS011;15054;57.152;-2.118;2022-07-29T06:17:56;7.32;;;3.17;;
27644;SDS011;15054;57.152;-2.118;2022-07-29T06:20:29;5.55;;;3.08;;
27644;SDS011;15054;57.152;-2.118;2022-07-29T06:22:58;5.93;;;2.85;;
27644;SDS011;15054;57.152;-2.118;2022-07-29T06:25:27;7.05;;;2.08;;
27644;SDS011;15054;57.152;-2.118;2022-07-29T06:27:57;4.40;;;2.47;;
27644;SDS011;15054;57.152;-2.118;2022-07-29T06:30:24;5.90;;;3.35;;
27644;SDS011;15054;57.152;-2.118;2022-07-29T06:32:52;7.68;;;2.33;;
27644;SDS011;15054;57.152;-2.118;2022-07-29T06:35:19;5.25;;;1.92;;
27644;SDS011;15054;57.152;-2.118;2022-07-29T06:38:06;5.97;;;2.03;;
27644;SDS011;15054;57.152;-2.118;2022-07-29T06:40:53;4.78;;;1.75;;
27644;SDS011;15054;57.152;-2.118;2022-07-29T06:43:27;6.53;;;2.42;;
27644;SDS011;15054;57.152;-2.118;2022-07-29T06:46:17;5.38;;;2.30;;
27644;SDS011;15054;57.152;-2.118;2022-07-29T06:48:46;4.63;;;2.05;;
27644;SDS011;15054;57.152;-2.118;2022-07-29T06:51:17;5.47;;;2.05;;
27644;SDS011;15054;57.152;-2.118;2022-07-29T06:53:49;10.25;;;2.72;;
27644;SDS011;15054;57.152;-2.118;2022-07-29T06:56:27;9.05;;;2.55;;
27644;SDS011;15054;57.152;-2.118;2022-07-29T06:58:54;4.72;;;2.22;;
27644;SDS011;15054;57.152;-2.118;2022-07-29T07:01:21;3.75;;;2.30;;
27644;SDS011;15054;57.152;-2.118;2022-07-29T07:03:50;4.90;;;2.13;;
27644;SDS011;15054;57.152;-2.118;2022-07-29T07:06:18;8.02;;;2.58;;
27644;SDS011;15054;57.152;-2.118;2022-07-29T07:08:45;4.97;;;2.03;;
27644;SDS011;15054;57.152;-2.118;2022-07-29T07:11:12;5.45;;;2.50;;
27644;SDS011;15054;57.152;-2.118;2022-07-29T07:13:40;2.88;;;1.85;;
27644;SDS011;15054;57.152;-2.118;2022-07-29T07:16:07;6.70;;;2.45;;
27644;SDS011;15054;57.152;-2.118;2022-07-29T07:18:34;5.43;;;1.75;;
27644;SDS011;15054;57.152;-2.118;2022-07-29T07:21:01;10.32;;;2.38;;
27644;SDS011;15054;57.152;-2.118;2022-07-29T07:23:28;7.07;;;1.55;;
27644;SDS011;15054;57.152;-2.118;2022-07-29T07:25:56;8.05;;;2.22;;
27644;SDS011;15054;57.152;-2.118;2022-07-29T07:28:23;5.57;;;2.22;;
27644;SDS011;15054;57.152;-2.118;2022-07-29T07:30:51;4.47;;;2.50;;
27644;SDS011;15054;57.152;-2.118;2022-07-29T07:33:18;6.82;;;2.50;;
27644;SDS011;15054;57.152;-2.118;2022-07-29T07:35:46;5.63;;;2.63;;
27644;SDS011;15054;57.152;-2.118;2022-07-29T07:38:13;3.30;;;2.00;;
27644;SDS011;15054;57.152;-2.118;2022-07-29T07:40:40;6.80;;;2.50;;
27644;SDS011;15054;57.152;-2.118;2022-07-29T07:43:08;10.38;;;2.63;;
27644;SDS011;15054;57.152;-2.118;2022-07-29T07:45:35;5.75;;;2.65;;
27644;SDS011;15054;57.152;-2.118;2022-07-29T07:48:04;6.03;;;2.80;;
27644;SDS011;15054;57.152;-2.118;2022-07-29T07:50:31;7.03;;;2.60;;
27644;SDS011;15054;57.152;-2.118;2022-07-29T07:52:58;5.10;;;2.40;;
27644;SDS011;15054;57.152;-2.118;2022-07-29T07:55:28;5.28;;;2.17;;
27644;SDS011;15054;57.152;-2.118;2022-07-29T07:58:15;6.25;;;1.95;;
27644;SDS011;15054;57.152;-2.118;2022-07-29T08:00:42;2.72;;;2.30;;
27644;SDS011;15054;57.152;-2.118;2022-07-29T08:03:10;3.05;;;1.88;;
27644;SDS011;15054;57.152;-2.118;2022-07-29T08:05:42;5.70;;;2.33;;
27644;SDS011;15054;57.152;-2.118;2022-07-29T08:08:09;4.03;;;2.00;;
27644;SDS011;15054;57.152;-2.118;2022-07-29T08:10:37;4.60;;;2.20;;
27644;SDS011;15054;57.152;-2.118;2022-07-29T08:13:19;4.78;;;2.45;;
27644;SDS011;15054;57.152;-2.118;2022-07-29T08:15:47;6.18;;;1.88;;
27644;SDS011;15054;57.152;-2.118;2022-07-29T08:18:24;4.68;;;1.80;;
27644;SDS011;15054;57.152;-2.118;2022-07-29T08:20:52;4.90;;;1.95;;
27644;SDS011;15054;57.152;-2.118;2022-07-29T08:23:20;5.88;;;2.55;;
27644;SDS011;15054;57.152;-2.118;2022-07-29T08:25:47;4.53;;;1.70;;
27644;SDS011;15054;57.152;-2.118;2022-07-29T08:28:16;5.93;;;1.95;;
27644;SDS011;15054;57.152;-2.118;2022-07-29T08:30:45;5.82;;;2.03;;
27644;SDS011;15054;57.152;-2.118;2022-07-29T08:33:12;2.25;;;1.77;;
27644;SDS011;15054;57.152;-2.118;2022-07-29T08:35:39;4.03;;;1.58;;
27644;SDS011;15054;57.152;-2.118;2022-07-29T08:38:07;4.78;;;1.70;;
27644;SDS011;15054;57.152;-2.118;2022-07-29T08:40:34;8.38;;;2.13;;
27644;SDS011;15054;57.152;-2.118;2022-07-29T08:43:05;4.28;;;1.60;;
27644;SDS011;15054;57.152;-2.118;2022-07-29T08:45:44;4.43;;;1.83;;
27644;SDS011;15054;57.152;-2.118;2022-07-29T08:48:14;2.05;;;1.38;;
27644;SDS011;15054;57.152;-2.118;2022-07-29T08:50:43;3.38;;;1.48;;
27644;SDS011;15054;57.152;-2.118;2022-07-29T08:53:12;3.63;;;1.73;;
27644;SDS011;15054;57.152;-2.118;2022-07-29T08:55:45;2.47;;;1.20;;
27644;SDS011;15054;57.152;-2.118;2022-07-29T08:58:14;4.10;;;1.30;;
27644;SDS011;15054;57.152;-2.118;2022-07-29T09:00:44;2.25;;;1.10;;
27644;SDS011;15054;57.152;-2.118;2022-07-29T09:03:15;6.45;;;1.65;;
27644;SDS011;15054;57.152;-2.118;2022-07-29T09:05:46;7.40;;;1.63;;
27644;SDS011;15054;57.152;-2.118;2022-07-29T09:08:14;4.63;;;1.38;;
27644;SDS011;15054;57.152;-2.118;2022-07-29T09:10:43;5.40;;;1.48;;
27644;SDS011;15054;57.152;-2.118;2022-07-29T09:13:11;5.25;;;2.50;;
27644;SDS011;15054;57.152;-2.118;2022-07-29T09:15:38;6.88;;;2.08;;
27644;SDS011;15054;57.152;-2.118;2022-07-29T09:18:05;3.42;;;1.55;;
27644;SDS011;15054;57.152;-2.118;2022-07-29T09:20:32;3.85;;;1.52;;
27644;SDS011;15054;57.152;-2.118;2022-07-29T09:23:18;5.18;;;1.65;;
27644;SDS011;15054;57.152;-2.118;2022-07-29T09:25:50;2.33;;;1.08;;
27644;SDS011;15054;57.152;-2.118;2022-07-29T09:28:17;2.80;;;1.35;;
27644;SDS011;15054;57.152;-2.118;2022-07-29T09:30:51;4.28;;;1.40;;
27644;SDS011;15054;57.152;-2.118;2022-07-29T09:33:23;7.63;;;2.15;;
27644;SDS011;15054;57.152;-2.118;2022-07-29T09:36:07;3.35;;;1.80;;
27644;SDS011;15054;57.152;-2.118;2022-07-29T09:38:36;4.85;;;1.77;;
27644;SDS011;15054;57.152;-2.118;2022-07-29T09:41:04;4.60;;;1.85;;
27644;SDS011;15054;57.152;-2.118;2022-07-29T09:43:32;3.55;;;1.50;;
27644;SDS011;15054;57.152;-2.118;2022-07-29T09:46:10;4.82;;;1.73;;
27644;SDS011;15054;57.152;-2.118;2022-07-29T09:48:38;5.45;;;2.20;;
27644;SDS011;15054;57.152;-2.118;2022-07-29T09:51:05;4.32;;;2.03;;
27644;SDS011;15054;57.152;-2.118;2022-07-29T09:53:55;2.65;;;1.75;;
27644;SDS011;15054;57.152;-2.118;2022-07-29T09:56:41;4.40;;;2.00;;
27644;SDS011;15054;57.152;-2.118;2022-07-29T09:59:09;5.55;;;1.88;;
27644;SDS011;15054;57.152;-2.118;2022-07-29T10:01:37;5.50;;;1.83;;
27644;SDS011;15054;57.152;-2.118;2022-07-29T10:04:04;4.85;;;2.05;;
27644;SDS011;15054;57.152;-2.118;2022-07-29T10:06:31;4.18;;;2.00;;
27644;SDS011;15054;57.152;-2.118;2022-07-29T10:09:07;1.85;;;1.27;;
27644;SDS011;15054;57.152;-2.118;2022-07-29T10:14:15;5.07;;;1.90;;
27644;SDS011;15054;57.152;-2.118;2022-07-29T10:16:43;3.80;;;1.58;;
27644;SDS011;15054;57.152;-2.118;2022-07-29T10:19:11;3.10;;;1.80;;
27644;SDS011;15054;57.152;-2.118;2022-07-29T10:21:43;3.10;;;1.83;;
27644;SDS011;15054;57.152;-2.118;2022-07-29T10:24:11;2.28;;;1.45;;
27644;SDS011;15054;57.152;-2.118;2022-07-29T10:26:42;2.55;;;1.80;;
27644;SDS011;15054;57.152;-2.118;2022-07-29T10:29:11;2.92;;;1.85;;
27644;SDS011;15054;57.152;-2.118;2022-07-29T10:32:42;4.43;;;1.30;;
27644;SDS011;15054;57.152;-2.118;2022-07-29T10:35:15;2.00;;;1.58;;
27644;SDS011;15054;57.152;-2.118;2022-07-29T10:44:01;5.43;;;1.80;;
27644;SDS011;15054;57.152;-2.118;2022-07-29T10:46:29;1.80;;;1.52;;
27644;SDS011;15054;57.152;-2.118;2022-07-29T10:51:53;3.80;;;1.95;;
27644;SDS011;15054;57.152;-2.118;2022-07-29T10:59:40;3.30;;;2.17;;
27644;SDS011;15054;57.152;-2.118;2022-07-29T11:05:16;4.10;;;1.83;;
27644;SDS011;15054;57.152;-2.118;2022-07-29T11:10:46;2.92;;;2.00;;
27644;SDS011;15054;57.152;-2.118;2022-07-29T11:13:44;4.00;;;1.70;;
27644;SDS011;15054;57.152;-2.118;2022-07-29T11:16:14;2.67;;;1.65;;
27644;SDS011;15054;57.152;-2.118;2022-07-29T11:21:57;4.68;;;1.55;;
27644;SDS011;15054;57.152;-2.118;2022-07-29T11:24:26;4.43;;;1.75;;
27644;SDS011;15054;57.152;-2.118;2022-07-29T11:27:14;3.22;;;1.83;;
27644;SDS011;15054;57.152;-2.118;2022-07-29T11:29:57;3.42;;;1.80;;
27644;SDS011;15054;57.152;-2.118;2022-07-29T11:32:39;4.13;;;2.00;;
27644;SDS011;15054;57.152;-2.118;2022-07-29T11:37:44;2.67;;;1.50;;
27644;SDS011;15054;57.152;-2.118;2022-07-29T11:40:20;1.83;;;1.23;;
27644;SDS011;15054;57.152;-2.118;2022-07-29T11:42:48;1.90;;;1.42;;
27644;SDS011;15054;57.152;-2.118;2022-07-29T11:45:21;3.75;;;1.65;;
27644;SDS011;15054;57.152;-2.118;2022-07-29T11:48:16;3.95;;;2.10;;
27644;SDS011;15054;57.152;-2.118;2022-07-29T11:50:55;2.10;;;1.60;;
27644;SDS011;15054;57.152;-2.118;2022-07-29T11:53:23;3.25;;;1.77;;
27644;SDS011;15054;57.152;-2.118;2022-07-29T11:55:58;4.95;;;1.52;;
27644;SDS011;15054;57.152;-2.118;2022-07-29T11:58:26;4.00;;;1.58;;
27644;SDS011;15054;57.152;-2.118;2022-07-29T12:00:54;1.95;;;1.33;;
27644;SDS011;15054;57.152;-2.118;2022-07-29T12:03:24;5.32;;;1.85;;
27644;SDS011;15054;57.152;-2.118;2022-07-29T12:06:01;2.78;;;1.60;;
27644;SDS011;15054;57.152;-2.118;2022-07-29T12:08:29;2.72;;;1.70;;
27644;SDS011;15054;57.152;-2.118;2022-07-29T12:10:56;2.53;;;1.50;;
27644;SDS011;15054;57.152;-2.118;2022-07-29T12:13:24;2.75;;;1.40;;
27644;SDS011;15054;57.152;-2.118;2022-07-29T12:16:03;2.38;;;1.70;;
27644;SDS011;15054;57.152;-2.118;2022-07-29T12:18:31;4.03;;;1.85;;
27644;SDS011;15054;57.152;-2.118;2022-07-29T12:20:59;3.65;;;1.38;;
27644;SDS011;15054;57.152;-2.118;2022-07-29T12:23:34;2.30;;;1.73;;
27644;SDS011;15054;57.152;-2.118;2022-07-29T12:26:04;3.03;;;1.90;;
27644;SDS011;15054;57.152;-2.118;2022-07-29T12:28:50;2.55;;;1.58;;
27644;SDS011;15054;57.152;-2.118;2022-07-29T12:31:20;4.53;;;1.90;;
27644;SDS011;15054;57.152;-2.118;2022-07-29T12:34:07;2.17;;;1.30;;
27644;SDS011;15054;57.152;-2.118;2022-07-29T12:36:35;3.60;;;1.65;;
27644;SDS011;15054;57.152;-2.118;2022-07-29T12:39:03;3.05;;;1.75;;
27644;SDS011;15054;57.152;-2.118;2022-07-29T12:41:31;3.45;;;1.80;;
27644;SDS011;15054;57.152;-2.118;2022-07-29T12:43:58;2.15;;;1.73;;
27644;SDS011;15054;57.152;-2.118;2022-07-29T12:46:25;3.53;;;1.98;;
27644;SDS011;15054;57.152;-2.118;2022-07-29T12:48:53;3.25;;;1.70;;
27644;SDS011;15054;57.152;-2.118;2022-07-29T12:51:55;4.88;;;2.13;;
27644;SDS011;15054;57.152;-2.118;2022-07-29T12:54:15;2.97;;;1.52;;
27644;SDS011;15054;57.152;-2.118;2022-07-29T12:56:43;3.20;;;1.92;;
27644;SDS011;15054;57.152;-2.118;2022-07-29T12:59:18;2.88;;;1.77;;
27644;SDS011;15054;57.152;-2.118;2022-07-29T13:01:48;4.30;;;1.40;;
27644;SDS011;15054;57.152;-2.118;2022-07-29T13:04:28;2.15;;;1.83;;
27644;SDS011;15054;57.152;-2.118;2022-07-29T13:07:03;2.47;;;1.85;;
27644;SDS011;15054;57.152;-2.118;2022-07-29T13:09:42;3.50;;;1.92;;
27644;SDS011;15054;57.152;-2.118;2022-07-29T13:12:12;2.22;;;1.88;;
27644;SDS011;15054;57.152;-2.118;2022-07-29T13:14:41;3.10;;;1.73;;
27644;SDS011;15054;57.152;-2.118;2022-07-29T13:17:14;4.30;;;2.13;;
27644;SDS011;15054;57.152;-2.118;2022-07-29T13:19:50;6.28;;;3.25;;
27644;SDS011;15054;57.152;-2.118;2022-07-29T13:22:21;5.75;;;2.95;;
27644;SDS011;15054;57.152;-2.118;2022-07-29T13:27:24;4.47;;;2.45;;
27644;SDS011;15054;57.152;-2.118;2022-07-29T13:29:53;5.63;;;2.38;;
27644;SDS011;15054;57.152;-2.118;2022-07-29T13:32:24;5.38;;;2.55;;
27644;SDS011;15054;57.152;-2.118;2022-07-29T13:34:58;6.18;;;2.45;;
27644;SDS011;15054;57.152;-2.118;2022-07-29T13:37:31;5.45;;;2.33;;
27644;SDS011;15054;57.152;-2.118;2022-07-29T13:40:01;9.68;;;2.78;;
27644;SDS011;15054;57.152;-2.118;2022-07-29T13:42:29;7.50;;;2.42;;
27644;SDS011;15054;57.152;-2.118;2022-07-29T13:44:58;7.15;;;3.00;;
27644;SDS011;15054;57.152;-2.118;2022-07-29T13:47:25;4.05;;;2.67;;
27644;SDS011;15054;57.152;-2.118;2022-07-29T13:49:59;5.85;;;2.55;;
27644;SDS011;15054;57.152;-2.118;2022-07-29T13:52:27;6.43;;;2.47;;
27644;SDS011;15054;57.152;-2.118;2022-07-29T13:54:55;4.45;;;2.30;;
27644;SDS011;15054;57.152;-2.118;2022-07-29T13:57:23;6.75;;;3.20;;
27644;SDS011;15054;57.152;-2.118;2022-07-29T13:59:50;6.80;;;2.45;;
27644;SDS011;15054;57.152;-2.118;2022-07-29T14:02:20;4.13;;;2.10;;
27644;SDS011;15054;57.152;-2.118;2022-07-29T14:04:52;3.83;;;2.50;;
27644;SDS011;15054;57.152;-2.118;2022-07-29T14:07:20;6.72;;;2.33;;
27644;SDS011;15054;57.152;-2.118;2022-07-29T14:09:49;6.32;;;2.42;;
27644;SDS011;15054;57.152;-2.118;2022-07-29T14:12:17;4.07;;;1.98;;
27644;SDS011;15054;57.152;-2.118;2022-07-29T14:14:44;4.03;;;2.70;;
27644;SDS011;15054;57.152;-2.118;2022-07-29T14:17:12;4.25;;;2.25;;
27644;SDS011;15054;57.152;-2.118;2022-07-29T14:19:40;4.50;;;1.90;;
27644;SDS011;15054;57.152;-2.118;2022-07-29T14:22:08;5.38;;;2.63;;
27644;SDS011;15054;57.152;-2.118;2022-07-29T14:24:36;2.78;;;1.92;;
27644;SDS011;15054;57.152;-2.118;2022-07-29T14:27:04;7.22;;;2.72;;
27644;SDS011;15054;57.152;-2.118;2022-07-29T14:29:33;5.78;;;2.70;;
27644;SDS011;15054;57.152;-2.118;2022-07-29T14:32:07;4.88;;;2.78;;
27644;SDS011;15054;57.152;-2.118;2022-07-29T14:34:37;7.78;;;2.60;;
27644;SDS011;15054;57.152;-2.118;2022-07-29T14:37:04;8.18;;;3.50;;
27644;SDS011;15054;57.152;-2.118;2022-07-29T14:39:33;6.82;;;2.83;;
27644;SDS011;15054;57.152;-2.118;2022-07-29T14:42:09;6.78;;;3.08;;
27644;SDS011;15054;57.152;-2.118;2022-07-29T14:44:41;5.60;;;2.72;;
27644;SDS011;15054;57.152;-2.118;2022-07-29T14:47:10;4.82;;;2.63;;
27644;SDS011;15054;57.152;-2.118;2022-07-29T14:49:37;7.65;;;2.90;;
27644;SDS011;15054;57.152;-2.118;2022-07-29T14:52:04;7.05;;;2.55;;
27644;SDS011;15054;57.152;-2.118;2022-07-29T14:54:31;8.00;;;2.90;;
27644;SDS011;15054;57.152;-2.118;2022-07-29T14:57:00;5.65;;;2.58;;
27644;SDS011;15054;57.152;-2.118;2022-07-29T14:59:27;5.95;;;2.60;;
27644;SDS011;15054;57.152;-2.118;2022-07-29T15:01:54;4.32;;;2.35;;
27644;SDS011;15054;57.152;-2.118;2022-07-29T15:04:22;6.45;;;2.28;;
27644;SDS011;15054;57.152;-2.118;2022-07-29T15:06:49;4.40;;;2.42;;
27644;SDS011;15054;57.152;-2.118;2022-07-29T15:09:16;8.77;;;2.83;;
27644;SDS011;15054;57.152;-2.118;2022-07-29T15:11:44;5.60;;;2.67;;
27644;SDS011;15054;57.152;-2.118;2022-07-29T15:14:12;6.53;;;3.00;;
27644;SDS011;15054;57.152;-2.118;2022-07-29T15:16:40;5.88;;;3.13;;
27644;SDS011;15054;57.152;-2.118;2022-07-29T15:19:11;10.50;;;2.75;;
27644;SDS011;15054;57.152;-2.118;2022-07-29T15:21:39;6.05;;;2.92;;
27644;SDS011;15054;57.152;-2.118;2022-07-29T15:24:17;7.07;;;3.15;;
27644;SDS011;15054;57.152;-2.118;2022-07-29T15:26:47;9.32;;;2.83;;
27644;SDS011;15054;57.152;-2.118;2022-07-29T15:29:14;5.70;;;2.30;;
27644;SDS011;15054;57.152;-2.118;2022-07-29T15:31:42;8.50;;;2.28;;
27644;SDS011;15054;57.152;-2.118;2022-07-29T15:34:10;5.15;;;1.95;;
27644;SDS011;15054;57.152;-2.118;2022-07-29T15:36:37;4.22;;;2.05;;
27644;SDS011;15054;57.152;-2.118;2022-07-29T15:39:20;6.00;;;2.20;;
27644;SDS011;15054;57.152;-2.118;2022-07-29T15:41:49;4.00;;;2.10;;